sensor_id;sensor_type;location;lat;lon;timestamp;P1;durP1;ratioP1;P2;durP2;ratioP2
3601;SDS011;1815;50.950;6.920;2022-09-30T00:02:22;3.50;;;3.03;;
3601;SDS011;1815;50.950;6.920;2022-09-30T00:04:48;3.37;;;2.70;;
3601;SDS011;1815;50.950;6.920;2022-09-30T00:07:14;4.10;;;2.73;;
3601;SDS011;1815;50.950;6.920;2022-09-30T00:09:39;3.70;;;3.00;;
3601;SDS011;1815;50.950;6.920;2022-09-30T00:12:05;3.97;;;3.10;;
3601;SDS011;1815;50.950;6.920;2022-09-30T00:14:31;4.97;;;3.07;;
3601;SDS011;1815;50.950;6.920;2022-09-30T00:16:57;3.87;;;2.93;;
3601;SDS011;1815;50.950;6.920;2022-09-30T00:19:23;3.90;;;2.70;;
3601;SDS011;1815;50.950;6.920;2022-09-30T00:21:49;2.97;;;2.28;;
3601;SDS011;1815;50.950;6.920;2022-09-30T00:24:15;3.40;;;3.10;;
3601;SDS011;1815;50.950;6.920;2022-09-30T00:26:41;3.20;;;2.73;;
3601;SDS011;1815;50.950;6.920;2022-09-30T00:29:08;4.50;;;3.27;;
3601;SDS011;1815;50.950;6.920;2022-09-30T00:31:34;3.72;;;3.10;;
3601;SDS011;1815;50.950;6.920;2022-09-30T00:34:01;3.50;;;2.60;;
3601;SDS011;1815;50.950;6.920;2022-09-30T00:38:58;8.57;;;3.70;;
3601;SDS011;1815;50.950;6.920;2022-09-30T00:41:24;4.80;;;2.50;;
3601;SDS011;1815;50.950;6.920;2022-09-30T00:43:51;3.00;;;2.63;;
3601;SDS011;1815;50.950;6.920;2022-09-30T00:46:19;3.15;;;2.60;;
3601;SDS011;1815;50.950;6.920;2022-09-30T00:48:53;4.55;;;2.83;;
3601;SDS011;1815;50.950;6.920;2022-09-30T00:51:27;3.58;;;2.65;;
3601;SDS011;1815;50.950;6.920;2022-09-30T00:53:59;6.50;;;3.53;;
3601;SDS011;1815;50.950;6.920;2022-09-30T00:56:45;4.95;;;3.30;;
3601;SDS011;1815;50.950;6.920;2022-09-30T00:59:28;3.17;;;2.65;;
3601;SDS011;1815;50.950;6.920;2022-09-30T01:01:58;3.13;;;2.53;;
3601;SDS011;1815;50.950;6.920;2022-09-30T01:04:26;3.67;;;2.78;;
3601;SDS011;1815;50.950;6.920;2022-09-30T01:06:56;3.75;;;2.47;;
3601;SDS011;1815;50.950;6.920;2022-09-30T01:09:25;4.50;;;3.20;;
3601;SDS011;1815;50.950;6.920;2022-09-30T01:11:51;5.00;;;2.78;;
3601;SDS011;1815;50.950;6.920;2022-09-30T01:14:18;3.72;;;2.80;;
3601;SDS011;1815;50.950;6.920;2022-09-30T01:33:44;3.95;;;2.90;;
3601;SDS011;1815;50.950;6.920;2022-09-30T01:41:53;3.73;;;2.57;;
3601;SDS011;1815;50.950;6.920;2022-09-30T01:44:27;5.35;;;3.20;;
3601;SDS011;1815;50.950;6.920;2022-09-30T01:47:14;2.95;;;2.75;;
3601;SDS011;1815;50.950;6.920;2022-09-30T01:55:12;5.00;;;2.70;;
3601;SDS011;1815;50.950;6.920;2022-09-30T02:00:36;5.00;;;2.88;;
3601;SDS011;1815;50.950;6.920;2022-09-30T02:05:54;3.50;;;3.15;;
3601;SDS011;1815;50.950;6.920;2022-09-30T02:11:08;3.90;;;3.58;;
3601;SDS011;1815;50.950;6.920;2022-09-30T02:16:24;3.88;;;3.47;;
3601;SDS011;1815;50.950;6.920;2022-09-30T02:19:08;3.40;;;2.65;;
3601;SDS011;1815;50.950;6.920;2022-09-30T02:21:37;4.72;;;3.17;;
3601;SDS011;1815;50.950;6.920;2022-09-30T02:24:07;4.28;;;3.33;;
3601;SDS011;1815;50.950;6.920;2022-09-30T02:26:37;3.60;;;3.20;;
3601;SDS011;1815;50.950;6.920;2022-09-30T02:29:14;3.65;;;2.88;;
3601;SDS011;1815;50.950;6.920;2022-09-30T02:31:45;5.00;;;3.72;;
3601;SDS011;1815;50.950;6.920;2022-09-30T02:34:20;4.85;;;3.65;;
3601;SDS011;1815;50.950;6.920;2022-09-30T02:36:55;4.00;;;3.70;;
3601;SDS011;1815;50.950;6.920;2022-09-30T02:42:27;4.97;;;3.17;;
3601;SDS011;1815;50.950;6.920;2022-09-30T02:44:56;3.05;;;2.70;;
3601;SDS011;1815;50.950;6.920;2022-09-30T02:53:12;3.75;;;3.13;;
3601;SDS011;1815;50.950;6.920;2022-09-30T02:58:38;4.32;;;3.17;;
3601;SDS011;1815;50.950;6.920;2022-09-30T03:01:11;3.92;;;3.03;;
3601;SDS011;1815;50.950;6.920;2022-09-30T03:06:37;3.30;;;3.00;;
3601;SDS011;1815;50.950;6.920;2022-09-30T03:09:04;5.00;;;3.35;;
3601;SDS011;1815;50.950;6.920;2022-09-30T03:11:30;4.15;;;3.17;;
3601;SDS011;1815;50.950;6.920;2022-09-30T03:22:33;4.40;;;3.08;;
3601;SDS011;1815;50.950;6.920;2022-09-30T03:30:54;4.57;;;3.20;;
3601;SDS011;1815;50.950;6.920;2022-09-30T03:38:48;3.30;;;2.95;;
3601;SDS011;1815;50.950;6.920;2022-09-30T03:41:40;5.18;;;3.67;;
3601;SDS011;1815;50.950;6.920;2022-09-30T03:46:53;5.00;;;2.72;;
3601;SDS011;1815;50.950;6.920;2022-09-30T03:49:25;4.40;;;3.25;;
3601;SDS011;1815;50.950;6.920;2022-09-30T03:51:55;4.97;;;3.30;;
3601;SDS011;1815;50.950;6.920;2022-09-30T03:54:22;4.25;;;2.45;;
3601;SDS011;1815;50.950;6.920;2022-09-30T03:56:48;2.85;;;2.60;;
3601;SDS011;1815;50.950;6.920;2022-09-30T03:59:18;2.70;;;2.13;;
3601;SDS011;1815;50.950;6.920;2022-09-30T04:01:48;3.58;;;2.70;;
3601;SDS011;1815;50.950;6.920;2022-09-30T04:04:14;5.85;;;2.85;;
3601;SDS011;1815;50.950;6.920;2022-09-30T04:06:40;3.10;;;2.80;;
3601;SDS011;1815;50.950;6.920;2022-09-30T04:09:06;6.10;;;2.90;;
3601;SDS011;1815;50.950;6.920;2022-09-30T04:11:31;4.90;;;3.70;;
3601;SDS011;1815;50.950;6.920;2022-09-30T04:13:57;5.90;;;3.60;;
3601;SDS011;1815;50.950;6.920;2022-09-30T04:16:29;3.13;;;2.72;;
3601;SDS011;1815;50.950;6.920;2022-09-30T04:18:55;3.33;;;2.70;;
3601;SDS011;1815;50.950;6.920;2022-09-30T04:21:23;6.90;;;3.20;;
3601;SDS011;1815;50.950;6.920;2022-09-30T04:23:53;3.15;;;2.85;;
3601;SDS011;1815;50.950;6.920;2022-09-30T04:26:20;5.47;;;3.70;;
3601;SDS011;1815;50.950;6.920;2022-09-30T04:28:47;4.93;;;4.43;;
3601;SDS011;1815;50.950;6.920;2022-09-30T04:31:13;4.23;;;3.80;;
3601;SDS011;1815;50.950;6.920;2022-09-30T04:33:41;7.60;;;3.58;;
3601;SDS011;1815;50.950;6.920;2022-09-30T04:36:09;2.90;;;2.42;;
3601;SDS011;1815;50.950;6.920;2022-09-30T04:38:35;5.90;;;4.25;;
3601;SDS011;1815;50.950;6.920;2022-09-30T04:41:02;5.23;;;3.40;;
3601;SDS011;1815;50.950;6.920;2022-09-30T04:43:29;3.97;;;3.33;;
3601;SDS011;1815;50.950;6.920;2022-09-30T04:45:56;3.78;;;2.67;;
3601;SDS011;1815;50.950;6.920;2022-09-30T04:48:22;6.43;;;4.03;;
3601;SDS011;1815;50.950;6.920;2022-09-30T04:50:48;7.47;;;3.67;;
3601;SDS011;1815;50.950;6.920;2022-09-30T04:53:15;5.00;;;4.05;;
3601;SDS011;1815;50.950;6.920;2022-09-30T04:55:42;4.45;;;3.17;;
3601;SDS011;1815;50.950;6.920;2022-09-30T04:58:09;4.70;;;4.20;;
3601;SDS011;1815;50.950;6.920;2022-09-30T05:00:36;4.90;;;3.80;;
3601;SDS011;1815;50.950;6.920;2022-09-30T05:03:02;4.85;;;4.07;;
3601;SDS011;1815;50.950;6.920;2022-09-30T05:05:29;4.93;;;3.33;;
3601;SDS011;1815;50.950;6.920;2022-09-30T05:07:58;3.60;;;3.20;;
3601;SDS011;1815;50.950;6.920;2022-09-30T05:10:26;4.18;;;3.50;;
3601;SDS011;1815;50.950;6.920;2022-09-30T05:12:52;4.43;;;3.87;;
3601;SDS011;1815;50.950;6.920;2022-09-30T05:15:18;4.10;;;3.53;;
3601;SDS011;1815;50.950;6.920;2022-09-30T05:17:43;4.23;;;3.83;;
3601;SDS011;1815;50.950;6.920;2022-09-30T05:20:12;4.47;;;3.97;;
3601;SDS011;1815;50.950;6.920;2022-09-30T05:22:39;8.45;;;5.20;;
3601;SDS011;1815;50.950;6.920;2022-09-30T05:25:04;6.10;;;4.50;;
3601;SDS011;1815;50.950;6.920;2022-09-30T05:27:31;5.35;;;3.58;;
3601;SDS011;1815;50.950;6.920;2022-09-30T05:29:56;4.83;;;3.63;;
3601;SDS011;1815;50.950;6.920;2022-09-30T05:32:22;4.07;;;3.67;;
3601;SDS011;1815;50.950;6.920;2022-09-30T05:34:49;3.47;;;3.00;;
3601;SDS011;1815;50.950;6.920;2022-09-30T05:37:15;5.60;;;3.50;;
3601;SDS011;1815;50.950;6.920;2022-09-30T05:39:41;5.30;;;4.20;;
3601;SDS011;1815;50.950;6.920;2022-09-30T05:42:06;4.90;;;3.17;;
3601;SDS011;1815;50.950;6.920;2022-09-30T05:44:32;5.10;;;3.63;;
3601;SDS011;1815;50.950;6.920;2022-09-30T05:46:58;5.20;;;3.50;;
3601;SDS011;1815;50.950;6.920;2022-09-30T05:49:24;3.90;;;3.50;;
3601;SDS011;1815;50.950;6.920;2022-09-30T05:51:50;5.75;;;4.30;;
3601;SDS011;1815;50.950;6.920;2022-09-30T05:54:16;4.10;;;3.70;;
3601;SDS011;1815;50.950;6.920;2022-09-30T05:56:42;5.10;;;3.50;;
3601;SDS011;1815;50.950;6.920;2022-09-30T05:59:08;5.33;;;4.03;;
3601;SDS011;1815;50.950;6.920;2022-09-30T06:01:34;5.67;;;3.73;;
3601;SDS011;1815;50.950;6.920;2022-09-30T06:04:01;3.40;;;2.92;;
3601;SDS011;1815;50.950;6.920;2022-09-30T06:06:26;5.57;;;4.00;;
3601;SDS011;1815;50.950;6.920;2022-09-30T06:08:52;6.13;;;4.25;;
3601;SDS011;1815;50.950;6.920;2022-09-30T06:11:19;3.70;;;3.40;;
3601;SDS011;1815;50.950;6.920;2022-09-30T06:13:47;5.90;;;3.67;;
3601;SDS011;1815;50.950;6.920;2022-09-30T06:16:14;4.45;;;3.25;;
3601;SDS011;1815;50.950;6.920;2022-09-30T06:18:42;6.68;;;3.78;;
3601;SDS011;1815;50.950;6.920;2022-09-30T06:21:09;4.05;;;3.50;;
3601;SDS011;1815;50.950;6.920;2022-09-30T06:23:37;4.85;;;3.85;;
3601;SDS011;1815;50.950;6.920;2022-09-30T06:26:05;5.07;;;4.35;;
3601;SDS011;1815;50.950;6.920;2022-09-30T06:28:32;4.57;;;3.30;;
3601;SDS011;1815;50.950;6.920;2022-09-30T06:30:59;3.97;;;3.47;;
3601;SDS011;1815;50.950;6.920;2022-09-30T06:33:26;3.78;;;2.95;;
3601;SDS011;1815;50.950;6.920;2022-09-30T06:35:53;3.20;;;2.63;;
3601;SDS011;1815;50.950;6.920;2022-09-30T06:38:19;4.55;;;2.88;;
3601;SDS011;1815;50.950;6.920;2022-09-30T06:40:46;5.35;;;3.50;;
3601;SDS011;1815;50.950;6.920;2022-09-30T06:43:16;4.40;;;3.10;;
3601;SDS011;1815;50.950;6.920;2022-09-30T06:45:43;4.25;;;3.10;;
3601;SDS011;1815;50.950;6.920;2022-09-30T06:48:12;3.97;;;3.40;;
3601;SDS011;1815;50.950;6.920;2022-09-30T06:50:38;4.70;;;3.80;;
3601;SDS011;1815;50.950;6.920;2022-09-30T06:53:04;5.05;;;3.38;;
3601;SDS011;1815;50.950;6.920;2022-09-30T06:55:33;4.20;;;3.80;;
3601;SDS011;1815;50.950;6.920;2022-09-30T06:58:03;6.80;;;4.60;;
3601;SDS011;1815;50.950;6.920;2022-09-30T07:00:33;5.10;;;4.50;;
3601;SDS011;1815;50.950;6.920;2022-09-30T07:03:00;6.40;;;5.30;;
3601;SDS011;1815;50.950;6.920;2022-09-30T07:05:26;5.60;;;5.10;;
3601;SDS011;1815;50.950;6.920;2022-09-30T07:07:53;5.10;;;4.60;;
3601;SDS011;1815;50.950;6.920;2022-09-30T07:10:20;5.35;;;4.50;;
3601;SDS011;1815;50.950;6.920;2022-09-30T07:12:51;6.20;;;4.57;;
3601;SDS011;1815;50.950;6.920;2022-09-30T07:15:18;6.57;;;5.05;;
3601;SDS011;1815;50.950;6.920;2022-09-30T07:17:51;6.00;;;5.10;;
3601;SDS011;1815;50.950;6.920;2022-09-30T07:20:18;8.75;;;5.60;;
3601;SDS011;1815;50.950;6.920;2022-09-30T07:22:44;5.72;;;5.13;;
3601;SDS011;1815;50.950;6.920;2022-09-30T07:25:10;7.35;;;4.53;;
3601;SDS011;1815;50.950;6.920;2022-09-30T07:27:36;8.67;;;5.90;;
3601;SDS011;1815;50.950;6.920;2022-09-30T07:30:02;6.03;;;4.93;;
3601;SDS011;1815;50.950;6.920;2022-09-30T07:32:29;8.05;;;6.03;;
3601;SDS011;1815;50.950;6.920;2022-09-30T07:34:55;7.87;;;5.60;;
3601;SDS011;1815;50.950;6.920;2022-09-30T07:37:22;8.70;;;7.00;;
3601;SDS011;1815;50.950;6.920;2022-09-30T07:39:49;9.10;;;8.20;;
3601;SDS011;1815;50.950;6.920;2022-09-30T07:42:15;7.03;;;5.80;;
3601;SDS011;1815;50.950;6.920;2022-09-30T07:44:45;8.80;;;6.00;;
3601;SDS011;1815;50.950;6.920;2022-09-30T07:47:11;7.03;;;6.23;;
3601;SDS011;1815;50.950;6.920;2022-09-30T07:49:40;6.73;;;5.63;;
3601;SDS011;1815;50.950;6.920;2022-09-30T07:52:06;6.90;;;4.83;;
3601;SDS011;1815;50.950;6.920;2022-09-30T07:54:33;5.00;;;4.50;;
3601;SDS011;1815;50.950;6.920;2022-09-30T07:57:00;6.83;;;5.63;;
3601;SDS011;1815;50.950;6.920;2022-09-30T07:59:27;4.78;;;4.38;;
3601;SDS011;1815;50.950;6.920;2022-09-30T08:01:54;4.93;;;4.40;;
3601;SDS011;1815;50.950;6.920;2022-09-30T08:04:20;5.80;;;4.30;;
3601;SDS011;1815;50.950;6.920;2022-09-30T08:06:48;5.60;;;5.07;;
3601;SDS011;1815;50.950;6.920;2022-09-30T08:09:20;5.90;;;3.70;;
3601;SDS011;1815;50.950;6.920;2022-09-30T08:11:47;5.43;;;3.70;;
3601;SDS011;1815;50.950;6.920;2022-09-30T08:14:14;4.20;;;3.80;;
3601;SDS011;1815;50.950;6.920;2022-09-30T08:16:45;4.00;;;3.60;;
3601;SDS011;1815;50.950;6.920;2022-09-30T08:19:18;5.87;;;4.70;;
3601;SDS011;1815;50.950;6.920;2022-09-30T08:21:45;7.03;;;3.90;;
3601;SDS011;1815;50.950;6.920;2022-09-30T08:24:11;5.53;;;3.00;;
3601;SDS011;1815;50.950;6.920;2022-09-30T08:26:38;3.87;;;3.30;;
3601;SDS011;1815;50.950;6.920;2022-09-30T08:29:04;5.13;;;4.00;;
3601;SDS011;1815;50.950;6.920;2022-09-30T08:31:31;3.47;;;3.07;;
3601;SDS011;1815;50.950;6.920;2022-09-30T08:33:59;4.23;;;3.20;;
3601;SDS011;1815;50.950;6.920;2022-09-30T08:36:27;5.80;;;3.60;;
3601;SDS011;1815;50.950;6.920;2022-09-30T08:38:54;3.93;;;3.20;;
3601;SDS011;1815;50.950;6.920;2022-09-30T08:44:23;5.37;;;4.87;;
3601;SDS011;1815;50.950;6.920;2022-09-30T08:53:02;5.37;;;4.20;;
3601;SDS011;1815;50.950;6.920;2022-09-30T08:55:37;6.97;;;3.50;;
3601;SDS011;1815;50.950;6.920;2022-09-30T08:58:13;7.23;;;4.13;;
3601;SDS011;1815;50.950;6.920;2022-09-30T09:00:50;4.73;;;3.60;;
3601;SDS011;1815;50.950;6.920;2022-09-30T09:03:19;5.20;;;4.70;;
3601;SDS011;1815;50.950;6.920;2022-09-30T09:05:57;5.50;;;4.40;;
3601;SDS011;1815;50.950;6.920;2022-09-30T09:22:46;5.33;;;3.60;;
3601;SDS011;1815;50.950;6.920;2022-09-30T09:25:20;5.27;;;4.60;;
3601;SDS011;1815;50.950;6.920;2022-09-30T09:27:55;7.70;;;4.10;;
3601;SDS011;1815;50.950;6.920;2022-09-30T09:30:24;3.70;;;3.20;;
3601;SDS011;1815;50.950;6.920;2022-09-30T09:32:57;4.63;;;3.50;;
3601;SDS011;1815;50.950;6.920;2022-09-30T09:38:00;3.87;;;3.50;;
3601;SDS011;1815;50.950;6.920;2022-09-30T09:43:38;4.10;;;3.60;;
3601;SDS011;1815;50.950;6.920;2022-09-30T09:46:29;4.97;;;3.17;;
3601;SDS011;1815;50.950;6.920;2022-09-30T09:51:42;4.37;;;3.07;;
3601;SDS011;1815;50.950;6.920;2022-09-30T09:54:12;3.60;;;3.03;;
3601;SDS011;1815;50.950;6.920;2022-09-30T09:56:43;6.63;;;4.23;;
3601;SDS011;1815;50.950;6.920;2022-09-30T10:01:41;4.83;;;3.23;;
3601;SDS011;1815;50.950;6.920;2022-09-30T10:04:16;4.87;;;3.43;;
3601;SDS011;1815;50.950;6.920;2022-09-30T10:09:34;4.73;;;3.40;;
3601;SDS011;1815;50.950;6.920;2022-09-30T10:14:31;4.30;;;3.90;;
3601;SDS011;1815;50.950;6.920;2022-09-30T10:16:59;5.77;;;3.70;;
3601;SDS011;1815;50.950;6.920;2022-09-30T10:19:28;5.73;;;4.00;;
3601;SDS011;1815;50.950;6.920;2022-09-30T10:24:33;4.33;;;3.67;;
3601;SDS011;1815;50.950;6.920;2022-09-30T10:27:03;4.97;;;4.03;;
3601;SDS011;1815;50.950;6.920;2022-09-30T10:29:45;5.70;;;4.10;;
3601;SDS011;1815;50.950;6.920;2022-09-30T10:32:11;6.20;;;3.30;;
3601;SDS011;1815;50.950;6.920;2022-09-30T10:34:39;4.30;;;3.80;;
3601;SDS011;1815;50.950;6.920;2022-09-30T10:37:08;4.37;;;3.97;;
3601;SDS011;1815;50.950;6.920;2022-09-30T10:39:41;6.77;;;3.83;;
3601;SDS011;1815;50.950;6.920;2022-09-30T10:42:19;3.40;;;3.10;;
3601;SDS011;1815;50.950;6.920;2022-09-30T10:44:51;3.77;;;2.50;;
3601;SDS011;1815;50.950;6.920;2022-09-30T10:47:19;5.43;;;3.60;;
3601;SDS011;1815;50.950;6.920;2022-09-30T10:49:52;3.37;;;2.80;;
3601;SDS011;1815;50.950;6.920;2022-09-30T10:52:25;3.80;;;3.03;;
3601;SDS011;1815;50.950;6.920;2022-09-30T10:54:57;3.43;;;2.43;;
3601;SDS011;1815;50.950;6.920;2022-09-30T10:57:28;3.30;;;2.07;;
3601;SDS011;1815;50.950;6.920;2022-09-30T11:02:36;2.63;;;2.13;;
3601;SDS011;1815;50.950;6.920;2022-09-30T11:05:17;3.10;;;2.20;;
3601;SDS011;1815;50.950;6.920;2022-09-30T11:21:09;3.97;;;2.00;;
3601;SDS011;1815;50.950;6.920;2022-09-30T11:23:59;3.00;;;1.53;;
3601;SDS011;1815;50.950;6.920;2022-09-30T11:29:23;2.67;;;1.50;;
3601;SDS011;1815;50.950;6.920;2022-09-30T11:40:20;3.67;;;1.37;;
3601;SDS011;1815;50.950;6.920;2022-09-30T11:43:00;3.63;;;1.43;;
3601;SDS011;1815;50.950;6.920;2022-09-30T11:57:06;3.20;;;1.47;;
3601;SDS011;1815;50.950;6.920;2022-09-30T12:02:13;1.90;;;1.20;;
3601;SDS011;1815;50.950;6.920;2022-09-30T12:05:04;2.70;;;1.30;;
3601;SDS011;1815;50.950;6.920;2022-09-30T12:07:36;1.90;;;1.10;;
3601;SDS011;1815;50.950;6.920;2022-09-30T12:12:49;3.60;;;1.10;;
3601;SDS011;1815;50.950;6.920;2022-09-30T12:15:20;2.40;;;1.30;;
3601;SDS011;1815;50.950;6.920;2022-09-30T12:17:57;1.80;;;0.90;;
3601;SDS011;1815;50.950;6.920;2022-09-30T12:23:20;4.47;;;1.50;;
3601;SDS011;1815;50.950;6.920;2022-09-30T12:26:22;2.90;;;1.10;;
3601;SDS011;1815;50.950;6.920;2022-09-30T12:34:11;1.80;;;0.80;;
3601;SDS011;1815;50.950;6.920;2022-09-30T12:39:41;2.93;;;1.10;;
3601;SDS011;1815;50.950;6.920;2022-09-30T12:47:58;2.63;;;0.90;;
3601;SDS011;1815;50.950;6.920;2022-09-30T12:50:28;1.70;;;0.80;;
3601;SDS011;1815;50.950;6.920;2022-09-30T12:53:07;1.73;;;0.77;;
3601;SDS011;1815;50.950;6.920;2022-09-30T12:56:00;1.80;;;0.63;;
3601;SDS011;1815;50.950;6.920;2022-09-30T13:01:16;2.30;;;0.70;;
3601;SDS011;1815;50.950;6.920;2022-09-30T13:06:16;2.27;;;1.00;;
3601;SDS011;1815;50.950;6.920;2022-09-30T13:30:00;1.40;;;0.53;;
3601;SDS011;1815;50.950;6.920;2022-09-30T13:32:33;1.43;;;0.70;;
3601;SDS011;1815;50.950;6.920;2022-09-30T13:40:48;2.03;;;0.70;;
3601;SDS011;1815;50.950;6.920;2022-09-30T13:46:21;2.67;;;0.63;;
3601;SDS011;1815;50.950;6.920;2022-09-30T13:48:55;1.50;;;0.60;;
3601;SDS011;1815;50.950;6.920;2022-09-30T13:51:26;1.50;;;0.60;;
3601;SDS011;1815;50.950;6.920;2022-09-30T13:53:55;1.57;;;0.60;;
3601;SDS011;1815;50.950;6.920;2022-09-30T13:56:25;1.80;;;0.60;;
3601;SDS011;1815;50.950;6.920;2022-09-30T14:01:33;2.43;;;0.80;;
3601;SDS011;1815;50.950;6.920;2022-09-30T14:12:33;1.67;;;0.60;;
3601;SDS011;1815;50.950;6.920;2022-09-30T14:20:28;2.53;;;0.80;;
3601;SDS011;1815;50.950;6.920;2022-09-30T14:22:56;3.50;;;0.60;;
3601;SDS011;1815;50.950;6.920;2022-09-30T14:25:22;1.70;;;0.60;;
3601;SDS011;1815;50.950;6.920;2022-09-30T14:27:59;1.37;;;0.60;;
3601;SDS011;1815;50.950;6.920;2022-09-30T14:30:28;1.40;;;0.60;;
3601;SDS011;1815;50.950;6.920;2022-09-30T14:33:02;1.73;;;0.70;;
3601;SDS011;1815;50.950;6.920;2022-09-30T14:35:36;2.60;;;0.70;;
3601;SDS011;1815;50.950;6.920;2022-09-30T14:38:06;1.40;;;0.60;;
3601;SDS011;1815;50.950;6.920;2022-09-30T14:40:40;2.50;;;0.70;;
3601;SDS011;1815;50.950;6.920;2022-09-30T14:43:13;2.80;;;0.80;;
3601;SDS011;1815;50.950;6.920;2022-09-30T14:45:43;1.30;;;0.60;;
3601;SDS011;1815;50.950;6.920;2022-09-30T14:48:44;1.40;;;0.60;;
3601;SDS011;1815;50.950;6.920;2022-09-30T14:51:11;1.97;;;0.83;;
3601;SDS011;1815;50.950;6.920;2022-09-30T14:54:00;1.77;;;0.73;;
3601;SDS011;1815;50.950;6.920;2022-09-30T14:56:30;2.03;;;0.73;;
3601;SDS011;1815;50.950;6.920;2022-09-30T14:58:59;2.47;;;0.70;;
3601;SDS011;1815;50.950;6.920;2022-09-30T15:01:38;1.40;;;0.60;;
3601;SDS011;1815;50.950;6.920;2022-09-30T15:04:06;1.80;;;0.93;;
3601;SDS011;1815;50.950;6.920;2022-09-30T15:06:38;1.70;;;0.90;;
3601;SDS011;1815;50.950;6.920;2022-09-30T15:09:27;2.57;;;0.90;;
3601;SDS011;1815;50.950;6.920;2022-09-30T15:11:54;2.93;;;0.80;;
3601;SDS011;1815;50.950;6.920;2022-09-30T15:14:21;2.17;;;0.60;;
3601;SDS011;1815;50.950;6.920;2022-09-30T15:16:54;2.10;;;0.80;;
3601;SDS011;1815;50.950;6.920;2022-09-30T15:19:22;2.13;;;0.80;;
3601;SDS011;1815;50.950;6.920;2022-09-30T15:21:50;2.83;;;0.80;;
3601;SDS011;1815;50.950;6.920;2022-09-30T15:24:21;1.50;;;0.70;;
3601;SDS011;1815;50.950;6.920;2022-09-30T15:26:50;2.63;;;0.93;;
3601;SDS011;1815;50.950;6.920;2022-09-30T15:29:17;1.70;;;0.70;;
3601;SDS011;1815;50.950;6.920;2022-09-30T15:31:47;2.60;;;0.80;;
3601;SDS011;1815;50.950;6.920;2022-09-30T15:34:17;1.37;;;0.60;;
3601;SDS011;1815;50.950;6.920;2022-09-30T15:36:48;2.20;;;0.80;;
3601;SDS011;1815;50.950;6.920;2022-09-30T15:39:30;1.47;;;0.67;;
3601;SDS011;1815;50.950;6.920;2022-09-30T15:47:56;2.90;;;0.97;;
3601;SDS011;1815;50.950;6.920;2022-09-30T15:53:27;1.47;;;0.67;;
3601;SDS011;1815;50.950;6.920;2022-09-30T15:56:21;1.70;;;0.60;;
3601;SDS011;1815;50.950;6.920;2022-09-30T15:58:58;1.50;;;0.70;;
3601;SDS011;1815;50.950;6.920;2022-09-30T16:01:46;1.47;;;0.60;;
3601;SDS011;1815;50.950;6.920;2022-09-30T16:11:43;2.37;;;0.73;;
3601;SDS011;1815;50.950;6.920;2022-09-30T16:14:17;2.43;;;1.00;;
3601;SDS011;1815;50.950;6.920;2022-09-30T16:16:47;2.00;;;0.90;;
3601;SDS011;1815;50.950;6.920;2022-09-30T16:19:16;4.07;;;0.70;;
3601;SDS011;1815;50.950;6.920;2022-09-30T16:21:44;2.30;;;0.80;;
3601;SDS011;1815;50.950;6.920;2022-09-30T16:26:56;2.40;;;0.77;;
3601;SDS011;1815;50.950;6.920;2022-09-30T16:29:23;3.00;;;1.00;;
3601;SDS011;1815;50.950;6.920;2022-09-30T16:31:51;2.17;;;0.80;;
3601;SDS011;1815;50.950;6.920;2022-09-30T16:34:23;1.90;;;0.80;;
3601;SDS011;1815;50.950;6.920;2022-09-30T16:36:50;1.53;;;0.70;;
3601;SDS011;1815;50.950;6.920;2022-09-30T16:39:18;2.50;;;0.80;;
3601;SDS011;1815;50.950;6.920;2022-09-30T16:41:45;1.60;;;0.90;;
3601;SDS011;1815;50.950;6.920;2022-09-30T16:44:11;2.47;;;1.10;;
3601;SDS011;1815;50.950;6.920;2022-09-30T16:46:37;1.73;;;0.80;;
3601;SDS011;1815;50.950;6.920;2022-09-30T16:49:13;1.57;;;0.70;;
3601;SDS011;1815;50.950;6.920;2022-09-30T16:51:41;1.87;;;0.80;;
3601;SDS011;1815;50.950;6.920;2022-09-30T16:54:07;1.77;;;0.77;;
3601;SDS011;1815;50.950;6.920;2022-09-30T16:56:33;2.20;;;0.80;;
3601;SDS011;1815;50.950;6.920;2022-09-30T16:58:59;2.40;;;0.70;;
3601;SDS011;1815;50.950;6.920;2022-09-30T17:01:24;2.10;;;0.70;;
3601;SDS011;1815;50.950;6.920;2022-09-30T17:03:51;1.53;;;0.70;;
3601;SDS011;1815;50.950;6.920;2022-09-30T17:06:19;1.50;;;0.80;;
3601;SDS011;1815;50.950;6.920;2022-09-30T17:08:50;2.63;;;0.80;;
3601;SDS011;1815;50.950;6.920;2022-09-30T17:11:17;1.70;;;0.87;;
3601;SDS011;1815;50.950;6.920;2022-09-30T17:13:44;1.90;;;1.00;;
3601;SDS011;1815;50.950;6.920;2022-09-30T17:16:10;1.70;;;0.90;;
3601;SDS011;1815;50.950;6.920;2022-09-30T17:18:36;2.43;;;0.80;;
3601;SDS011;1815;50.950;6.920;2022-09-30T17:21:02;3.50;;;0.90;;
3601;SDS011;1815;50.950;6.920;2022-09-30T17:23:28;1.93;;;1.10;;
3601;SDS011;1815;50.950;6.920;2022-09-30T17:25:54;5.13;;;1.00;;
3601;SDS011;1815;50.950;6.920;2022-09-30T17:28:20;2.87;;;1.10;;
3601;SDS011;1815;50.950;6.920;2022-09-30T17:30:46;2.60;;;1.00;;
3601;SDS011;1815;50.950;6.920;2022-09-30T17:33:13;1.90;;;0.77;;
3601;SDS011;1815;50.950;6.920;2022-09-30T17:35:39;2.90;;;1.00;;
3601;SDS011;1815;50.950;6.920;2022-09-30T17:38:06;1.83;;;0.90;;
3601;SDS011;1815;50.950;6.920;2022-09-30T17:40:33;2.10;;;1.00;;
3601;SDS011;1815;50.950;6.920;2022-09-30T17:43:18;1.70;;;0.90;;
3601;SDS011;1815;50.950;6.920;2022-09-30T17:45:44;2.60;;;1.00;;
3601;SDS011;1815;50.950;6.920;2022-09-30T17:48:11;2.30;;;0.80;;
3601;SDS011;1815;50.950;6.920;2022-09-30T17:50:39;1.77;;;0.90;;
3601;SDS011;1815;50.950;6.920;2022-09-30T17:53:12;1.70;;;0.80;;
3601;SDS011;1815;50.950;6.920;2022-09-30T17:55:42;1.70;;;0.90;;
3601;SDS011;1815;50.950;6.920;2022-09-30T17:58:11;2.97;;;1.10;;
3601;SDS011;1815;50.950;6.920;2022-09-30T18:00:38;1.80;;;1.07;;
3601;SDS011;1815;50.950;6.920;2022-09-30T18:03:04;2.67;;;1.20;;
3601;SDS011;1815;50.950;6.920;2022-09-30T18:05:30;1.83;;;1.00;;
3601;SDS011;1815;50.950;6.920;2022-09-30T18:07:57;1.93;;;1.00;;
3601;SDS011;1815;50.950;6.920;2022-09-30T18:10:23;2.17;;;1.30;;
3601;SDS011;1815;50.950;6.920;2022-09-30T18:12:50;2.93;;;1.10;;
3601;SDS011;1815;50.950;6.920;2022-09-30T18:15:18;4.93;;;1.40;;
3601;SDS011;1815;50.950;6.920;2022-09-30T18:17:44;2.60;;;1.37;;
3601;SDS011;1815;50.950;6.920;2022-09-30T18:20:10;2.73;;;1.40;;
3601;SDS011;1815;50.950;6.920;2022-09-30T18:22:37;2.47;;;1.20;;
3601;SDS011;1815;50.950;6.920;2022-09-30T18:25:03;3.63;;;1.17;;
3601;SDS011;1815;50.950;6.920;2022-09-30T18:28:06;3.80;;;1.13;;
3601;SDS011;1815;50.950;6.920;2022-09-30T18:30:33;4.03;;;1.03;;
3601;SDS011;1815;50.950;6.920;2022-09-30T18:32:59;3.50;;;1.00;;
3601;SDS011;1815;50.950;6.920;2022-09-30T18:35:25;2.60;;;1.00;;
3601;SDS011;1815;50.950;6.920;2022-09-30T18:37:51;2.93;;;0.90;;
3601;SDS011;1815;50.950;6.920;2022-09-30T18:40:18;3.50;;;0.87;;
3601;SDS011;1815;50.950;6.920;2022-09-30T18:42:46;2.50;;;0.80;;
3601;SDS011;1815;50.950;6.920;2022-09-30T18:45:13;2.90;;;1.23;;
3601;SDS011;1815;50.950;6.920;2022-09-30T18:47:39;2.00;;;0.97;;
3601;SDS011;1815;50.950;6.920;2022-09-30T18:50:09;2.10;;;1.10;;
3601;SDS011;1815;50.950;6.920;2022-09-30T18:52:36;2.37;;;1.20;;
3601;SDS011;1815;50.950;6.920;2022-09-30T18:55:03;2.77;;;1.27;;
3601;SDS011;1815;50.950;6.920;2022-09-30T18:57:29;3.78;;;1.83;;
3601;SDS011;1815;50.950;6.920;2022-09-30T18:59:56;3.00;;;1.80;;
3601;SDS011;1815;50.950;6.920;2022-09-30T19:02:23;2.30;;;1.13;;
3601;SDS011;1815;50.950;6.920;2022-09-30T19:04:50;2.90;;;1.90;;
3601;SDS011;1815;50.950;6.920;2022-09-30T19:07:19;2.80;;;1.70;;
3601;SDS011;1815;50.950;6.920;2022-09-30T19:09:45;4.13;;;1.60;;
3601;SDS011;1815;50.950;6.920;2022-09-30T19:12:14;4.27;;;2.03;;
3601;SDS011;1815;50.950;6.920;2022-09-30T19:14:44;4.40;;;1.60;;
3601;SDS011;1815;50.950;6.920;2022-09-30T19:17:11;3.43;;;1.43;;
3601;SDS011;1815;50.950;6.920;2022-09-30T19:19:37;3.50;;;2.13;;
3601;SDS011;1815;50.950;6.920;2022-09-30T19:22:08;2.90;;;1.30;;
3601;SDS011;1815;50.950;6.920;2022-09-30T19:24:35;2.43;;;1.40;;
3601;SDS011;1815;50.950;6.920;2022-09-30T19:27:04;2.10;;;1.20;;
3601;SDS011;1815;50.950;6.920;2022-09-30T19:29:30;3.88;;;1.55;;
3601;SDS011;1815;50.950;6.920;2022-09-30T19:31:57;2.47;;;1.27;;
3601;SDS011;1815;50.950;6.920;2022-09-30T19:34:23;2.20;;;1.20;;
3601;SDS011;1815;50.950;6.920;2022-09-30T19:36:49;3.00;;;1.45;;
3601;SDS011;1815;50.950;6.920;2022-09-30T19:39:16;2.00;;;1.20;;
3601;SDS011;1815;50.950;6.920;2022-09-30T19:41:43;2.53;;;1.60;;
3601;SDS011;1815;50.950;6.920;2022-09-30T19:44:10;2.35;;;1.35;;